sensor_id;sensor_type;location;lat;lon;timestamp;temperature;humidity
46336;DHT22;31365;48.858;8.530;2024-03-02T00:01:56;4.80;99.90
46336;DHT22;31365;48.858;8.530;2024-03-02T00:04:24;4.80;99.90
46336;DHT22;31365;48.858;8.530;2024-03-02T00:06:53;4.90;99.90
46336;DHT22;31365;48.858;8.530;2024-03-02T00:09:22;4.90;99.90
46336;DHT22;31365;48.858;8.530;2024-03-02T00:11:52;4.90;99.90
46336;DHT22;31365;48.858;8.530;2024-03-02T00:14:20;4.90;99.90
46336;DHT22;31365;48.858;8.530;2024-03-02T00:16:51;4.90;99.90
46336;DHT22;31365;48.858;8.530;2024-03-02T00:19:22;5.00;99.90
46336;DHT22;31365;48.858;8.530;2024-03-02T00:21:50;5.00;99.90
46336;DHT22;31365;48.858;8.530;2024-03-02T00:24:21;5.00;99.90
46336;DHT22;31365;48.858;8.530;2024-03-02T00:26:57;5.00;99.90
46336;DHT22;31365;48.858;8.530;2024-03-02T00:29:25;4.90;99.90
46336;DHT22;31365;48.858;8.530;2024-03-02T00:31:56;4.90;99.90
46336;DHT22;31365;48.858;8.530;2024-03-02T00:34:27;4.80;99.90
46336;DHT22;31365;48.858;8.530;2024-03-02T00:36:57;4.80;99.90
46336;DHT22;31365;48.858;8.530;2024-03-02T00:39:27;4.80;99.90
46336;DHT22;31365;48.858;8.530;2024-03-02T00:41:55;4.90;99.90
46336;DHT22;31365;48.858;8.530;2024-03-02T00:44:25;4.90;99.90
46336;DHT22;31365;48.858;8.530;2024-03-02T00:46:56;5.00;99.90
46336;DHT22;31365;48.858;8.530;2024-03-02T00:49:28;5.10;99.90
46336;DHT22;31365;48.858;8.530;2024-03-02T00:51:57;5.10;99.90
46336;DHT22;31365;48.858;8.530;2024-03-02T00:54:26;5.10;99.90
46336;DHT22;31365;48.858;8.530;2024-03-02T00:56:56;5.10;99.90
46336;DHT22;31365;48.858;8.530;2024-03-02T00:59:25;5.00;99.90
46336;DHT22;31365;48.858;8.530;2024-03-02T01:01:54;4.90;99.90
46336;DHT22;31365;48.858;8.530;2024-03-02T01:04:22;4.80;99.90
46336;DHT22;31365;48.858;8.530;2024-03-02T01:06:52;4.80;99.90
46336;DHT22;31365;48.858;8.530;2024-03-02T01:09:21;4.70;99.90
46336;DHT22;31365;48.858;8.530;2024-03-02T01:11:49;4.60;99.90
46336;DHT22;31365;48.858;8.530;2024-03-02T01:14:18;4.60;99.90
46336;DHT22;31365;48.858;8.530;2024-03-02T01:16:46;4.60;99.90
46336;DHT22;31365;48.858;8.530;2024-03-02T01:19:14;4.50;99.90
46336;DHT22;31365;48.858;8.530;2024-03-02T01:21:43;4.50;99.90
46336;DHT22;31365;48.858;8.530;2024-03-02T01:24:13;4.50;99.90
46336;DHT22;31365;48.858;8.530;2024-03-02T01:26:41;4.40;99.90
46336;DHT22;31365;48.858;8.530;2024-03-02T01:29:10;4.40;99.90
46336;DHT22;31365;48.858;8.530;2024-03-02T01:31:38;4.40;99.90
46336;DHT22;31365;48.858;8.530;2024-03-02T01:34:09;4.30;99.90
46336;DHT22;31365;48.858;8.530;2024-03-02T01:36:37;4.30;99.90
46336;DHT22;31365;48.858;8.530;2024-03-02T01:39:06;4.20;99.90
46336;DHT22;31365;48.858;8.530;2024-03-02T01:41:37;4.20;99.90
46336;DHT22;31365;48.858;8.530;2024-03-02T01:44:06;4.10;99.90
46336;DHT22;31365;48.858;8.530;2024-03-02T01:46:34;4.10;99.90
46336;DHT22;31365;48.858;8.530;2024-03-02T01:49:03;4.10;99.90
46336;DHT22;31365;48.858;8.530;2024-03-02T01:51:31;4.10;99.90
46336;DHT22;31365;48.858;8.530;2024-03-02T01:54:00;4.10;99.90
46336;DHT22;31365;48.858;8.530;2024-03-02T01:56:28;4.20;99.90
46336;DHT22;31365;48.858;8.530;2024-03-02T01:59:00;4.20;99.90
46336;DHT22;31365;48.858;8.530;2024-03-02T02:01:28;4.20;99.90
46336;DHT22;31365;48.858;8.530;2024-03-02T02:03:58;4.20;99.90
46336;DHT22;31365;48.858;8.530;2024-03-02T02:06:27;4.20;99.90
46336;DHT22;31365;48.858;8.530;2024-03-02T02:08:56;4.20;99.90
46336;DHT22;31365;48.858;8.530;2024-03-02T02:11:25;4.20;99.90
46336;DHT22;31365;48.858;8.530;2024-03-02T02:13:54;4.20;99.90
46336;DHT22;31365;48.858;8.530;2024-03-02T02:16:24;4.30;99.90
46336;DHT22;31365;48.858;8.530;2024-03-02T02:18:52;4.30;99.90
46336;DHT22;31365;48.858;8.530;2024-03-02T02:21:24;4.20;99.90
46336;DHT22;31365;48.858;8.530;2024-03-02T02:23:53;4.30;99.90
46336;DHT22;31365;48.858;8.530;2024-03-02T02:26:21;4.20;99.90
46336;DHT22;31365;48.858;8.530;2024-03-02T02:28:50;4.30;99.90
46336;DHT22;31365;48.858;8.530;2024-03-02T02:31:18;4.30;99.90
46336;DHT22;31365;48.858;8.530;2024-03-02T02:33:47;4.30;99.90
46336;DHT22;31365;48.858;8.530;2024-03-02T02:36:16;4.30;99.90
46336;DHT22;31365;48.858;8.530;2024-03-02T02:38:47;4.30;99.90
46336;DHT22;31365;48.858;8.530;2024-03-02T02:41:17;4.30;99.90
46336;DHT22;31365;48.858;8.530;2024-03-02T02:43:46;4.30;99.90
46336;DHT22;31365;48.858;8.530;2024-03-02T02:46:14;4.30;99.90
46336;DHT22;31365;48.858;8.530;2024-03-02T02:48:43;4.30;99.90
46336;DHT22;31365;48.858;8.530;2024-03-02T02:51:12;4.30;99.90
46336;DHT22;31365;48.858;8.530;2024-03-02T02:53:40;4.30;99.90
46336;DHT22;31365;48.858;8.530;2024-03-02T02:56:10;4.20;99.90
46336;DHT22;31365;48.858;8.530;2024-03-02T02:58:40;4.20;99.90
46336;DHT22;31365;48.858;8.530;2024-03-02T03:01:08;4.20;99.90
46336;DHT22;31365;48.858;8.530;2024-03-02T03:03:37;4.20;99.90
46336;DHT22;31365;48.858;8.530;2024-03-02T03:06:06;4.10;99.90
46336;DHT22;31365;48.858;8.530;2024-03-02T03:08:35;4.20;99.90
46336;DHT22;31365;48.858;8.530;2024-03-02T03:11:04;4.10;99.90
46336;DHT22;31365;48.858;8.530;2024-03-02T03:13:35;4.10;99.90
46336;DHT22;31365;48.858;8.530;2024-03-02T03:16:04;4.10;99.90
46336;DHT22;31365;48.858;8.530;2024-03-02T03:18:33;4.10;99.90
46336;DHT22;31365;48.858;8.530;2024-03-02T03:21:01;4.00;99.90
46336;DHT22;31365;48.858;8.530;2024-03-02T03:23:29;4.00;99.90
46336;DHT22;31365;48.858;8.530;2024-03-02T03:25:58;4.00;99.90
46336;DHT22;31365;48.858;8.530;2024-03-02T03:28:27;4.00;99.90
46336;DHT22;31365;48.858;8.530;2024-03-02T03:30:58;4.00;99.90
46336;DHT22;31365;48.858;8.530;2024-03-02T03:33:26;4.00;99.90
46336;DHT22;31365;48.858;8.530;2024-03-02T03:35:55;3.90;99.90
46336;DHT22;31365;48.858;8.530;2024-03-02T03:38:23;4.00;99.90
46336;DHT22;31365;48.858;8.530;2024-03-02T03:40:52;4.10;99.90
46336;DHT22;31365;48.858;8.530;2024-03-02T03:43:20;4.10;99.90
46336;DHT22;31365;48.858;8.530;2024-03-02T03:45:49;4.10;99.90
46336;DHT22;31365;48.858;8.530;2024-03-02T03:48:19;4.30;99.90
46336;DHT22;31365;48.858;8.530;2024-03-02T03:50:48;4.40;99.90
46336;DHT22;31365;48.858;8.530;2024-03-02T03:53:16;4.50;99.90
46336;DHT22;31365;48.858;8.530;2024-03-02T03:55:45;4.60;99.90
46336;DHT22;31365;48.858;8.530;2024-03-02T03:58:16;4.60;99.90
46336;DHT22;31365;48.858;8.530;2024-03-02T04:00:48;4.70;99.90
46336;DHT22;31365;48.858;8.530;2024-03-02T04:03:18;4.80;99.90
46336;DHT22;31365;48.858;8.530;2024-03-02T04:05:47;4.80;99.90
46336;DHT22;31365;48.858;8.530;2024-03-02T04:08:15;4.90;99.90
46336;DHT22;31365;48.858;8.530;2024-03-02T04:10:44;4.90;99.90
46336;DHT22;31365;48.858;8.530;2024-03-02T04:13:12;5.00;99.90
46336;DHT22;31365;48.858;8.530;2024-03-02T04:15:41;5.10;99.90
46336;DHT22;31365;48.858;8.530;2024-03-02T04:18:10;5.20;99.90
46336;DHT22;31365;48.858;8.530;2024-03-02T04:20:39;5.20;99.90
46336;DHT22;31365;48.858;8.530;2024-03-02T04:23:09;5.30;99.90
46336;DHT22;31365;48.858;8.530;2024-03-02T04:25:37;5.40;99.90
46336;DHT22;31365;48.858;8.530;2024-03-02T04:28:06;5.50;99.90
46336;DHT22;31365;48.858;8.530;2024-03-02T04:30:34;5.50;99.90
46336;DHT22;31365;48.858;8.530;2024-03-02T04:33:03;5.60;99.90
46336;DHT22;31365;48.858;8.530;2024-03-02T04:35:34;5.60;99.90
46336;DHT22;31365;48.858;8.530;2024-03-02T04:38:05;5.60;99.90
46336;DHT22;31365;48.858;8.530;2024-03-02T04:40:34;5.60;99.90
46336;DHT22;31365;48.858;8.530;2024-03-02T04:43:03;5.50;99.90
46336;DHT22;31365;48.858;8.530;2024-03-02T04:45:31;5.40;99.90
46336;DHT22;31365;48.858;8.530;2024-03-02T04:47:59;5.30;99.90
46336;DHT22;31365;48.858;8.530;2024-03-02T04:50:28;5.30;99.90
46336;DHT22;31365;48.858;8.530;2024-03-02T04:52:56;5.40;99.90
46336;DHT22;31365;48.858;8.530;2024-03-02T04:55:26;5.60;99.90
46336;DHT22;31365;48.858;8.530;2024-03-02T04:58:23;5.60;99.90
46336;DHT22;31365;48.858;8.530;2024-03-02T05:00:51;5.80;99.90
46336;DHT22;31365;48.858;8.530;2024-03-02T05:03:20;6.00;99.90
46336;DHT22;31365;48.858;8.530;2024-03-02T05:05:48;6.00;99.90
46336;DHT22;31365;48.858;8.530;2024-03-02T05:08:16;6.20;99.90
46336;DHT22;31365;48.858;8.530;2024-03-02T05:10:46;6.20;99.90
46336;DHT22;31365;48.858;8.530;2024-03-02T05:13:15;6.20;99.90
46336;DHT22;31365;48.858;8.530;2024-03-02T05:15:44;6.30;99.90
46336;DHT22;31365;48.858;8.530;2024-03-02T05:18:13;6.30;99.90
46336;DHT22;31365;48.858;8.530;2024-03-02T05:20:45;6.30;99.90
46336;DHT22;31365;48.858;8.530;2024-03-02T05:23:15;6.30;99.90
46336;DHT22;31365;48.858;8.530;2024-03-02T05:25:43;6.30;99.90
46336;DHT22;31365;48.858;8.530;2024-03-02T05:28:13;6.30;99.90
46336;DHT22;31365;48.858;8.530;2024-03-02T05:30:42;6.30;99.90
46336;DHT22;31365;48.858;8.530;2024-03-02T05:33:11;6.20;99.90
46336;DHT22;31365;48.858;8.530;2024-03-02T05:35:40;6.20;99.90
46336;DHT22;31365;48.858;8.530;2024-03-02T05:38:08;6.10;99.90
46336;DHT22;31365;48.858;8.530;2024-03-02T05:40:37;6.10;99.90
46336;DHT22;31365;48.858;8.530;2024-03-02T05:43:05;6.10;99.90
46336;DHT22;31365;48.858;8.530;2024-03-02T05:45:35;6.10;99.90
46336;DHT22;31365;48.858;8.530;2024-03-02T05:48:04;6.00;99.90
46336;DHT22;31365;48.858;8.530;2024-03-02T05:50:34;5.90;99.90
46336;DHT22;31365;48.858;8.530;2024-03-02T05:53:03;5.80;99.90
46336;DHT22;31365;48.858;8.530;2024-03-02T05:55:32;5.80;99.90
46336;DHT22;31365;48.858;8.530;2024-03-02T05:58:01;5.70;99.90
46336;DHT22;31365;48.858;8.530;2024-03-02T06:00:46;5.60;99.90
46336;DHT22;31365;48.858;8.530;2024-03-02T06:03:14;5.60;99.90
46336;DHT22;31365;48.858;8.530;2024-03-02T06:05:43;5.50;99.90
46336;DHT22;31365;48.858;8.530;2024-03-02T06:08:11;5.40;99.90
46336;DHT22;31365;48.858;8.530;2024-03-02T06:10:39;5.30;99.90
46336;DHT22;31365;48.858;8.530;2024-03-02T06:13:08;5.30;99.90
46336;DHT22;31365;48.858;8.530;2024-03-02T06:15:36;5.10;99.90
46336;DHT22;31365;48.858;8.530;2024-03-02T06:18:06;5.10;99.90
46336;DHT22;31365;48.858;8.530;2024-03-02T06:20:35;5.00;99.90
46336;DHT22;31365;48.858;8.530;2024-03-02T06:23:04;4.90;99.90
46336;DHT22;31365;48.858;8.530;2024-03-02T06:25:32;4.80;99.90
46336;DHT22;31365;48.858;8.530;2024-03-02T06:28:01;4.80;99.90
46336;DHT22;31365;48.858;8.530;2024-03-02T06:30:29;4.80;99.90
46336;DHT22;31365;48.858;8.530;2024-03-02T06:32:58;4.80;99.90
46336;DHT22;31365;48.858;8.530;2024-03-02T06:35:28;4.70;99.90
46336;DHT22;31365;48.858;8.530;2024-03-02T06:37:56;4.70;99.90
46336;DHT22;31365;48.858;8.530;2024-03-02T06:40:26;4.60;99.90
46336;DHT22;31365;48.858;8.530;2024-03-02T06:42:54;4.60;99.90
46336;DHT22;31365;48.858;8.530;2024-03-02T06:45:23;4.60;99.90
46336;DHT22;31365;48.858;8.530;2024-03-02T06:47:51;4.60;99.90
46336;DHT22;31365;48.858;8.530;2024-03-02T06:50:19;4.70;99.90
46336;DHT22;31365;48.858;8.530;2024-03-02T06:52:48;4.70;99.90
46336;DHT22;31365;48.858;8.530;2024-03-02T06:55:17;4.70;99.90
46336;DHT22;31365;48.858;8.530;2024-03-02T06:57:45;4.90;99.90
46336;DHT22;31365;48.858;8.530;2024-03-02T07:00:14;5.10;99.90
46336;DHT22;31365;48.858;8.530;2024-03-02T07:02:45;5.30;99.90
46336;DHT22;31365;48.858;8.530;2024-03-02T07:05:14;5.50;99.90
46336;DHT22;31365;48.858;8.530;2024-03-02T07:07:42;5.60;99.90
46336;DHT22;31365;48.858;8.530;2024-03-02T07:10:12;5.80;99.90
46336;DHT22;31365;48.858;8.530;2024-03-02T07:12:40;5.80;99.90
46336;DHT22;31365;48.858;8.530;2024-03-02T07:15:09;5.80;99.90
46336;DHT22;31365;48.858;8.530;2024-03-02T07:18:10;5.80;99.90
46336;DHT22;31365;48.858;8.530;2024-03-02T07:20:39;5.80;99.90
46336;DHT22;31365;48.858;8.530;2024-03-02T07:23:07;5.80;99.90
46336;DHT22;31365;48.858;8.530;2024-03-02T07:25:38;5.90;99.90
46336;DHT22;31365;48.858;8.530;2024-03-02T07:28:10;6.00;99.90
46336;DHT22;31365;48.858;8.530;2024-03-02T07:30:39;6.20;99.90
46336;DHT22;31365;48.858;8.530;2024-03-02T07:33:08;6.30;99.90
46336;DHT22;31365;48.858;8.530;2024-03-02T07:35:36;6.50;99.90
46336;DHT22;31365;48.858;8.530;2024-03-02T07:38:05;6.70;99.90
46336;DHT22;31365;48.858;8.530;2024-03-02T07:40:34;6.90;99.90
46336;DHT22;31365;48.858;8.530;2024-03-02T07:43:05;7.00;99.90
46336;DHT22;31365;48.858;8.530;2024-03-02T07:45:33;7.10;99.90
46336;DHT22;31365;48.858;8.530;2024-03-02T07:48:03;7.30;99.90
46336;DHT22;31365;48.858;8.530;2024-03-02T07:50:31;7.40;99.90
46336;DHT22;31365;48.858;8.530;2024-03-02T07:53:02;7.50;99.90
46336;DHT22;31365;48.858;8.530;2024-03-02T07:55:32;7.70;99.90
46336;DHT22;31365;48.858;8.530;2024-03-02T07:58:01;7.80;99.90
46336;DHT22;31365;48.858;8.530;2024-03-02T08:00:31;7.90;99.90
46336;DHT22;31365;48.858;8.530;2024-03-02T08:03:01;8.20;99.90
46336;DHT22;31365;48.858;8.530;2024-03-02T08:05:30;8.40;99.90
46336;DHT22;31365;48.858;8.530;2024-03-02T08:07:58;8.60;99.90
46336;DHT22;31365;48.858;8.530;2024-03-02T08:10:27;8.80;99.90
46336;DHT22;31365;48.858;8.530;2024-03-02T08:12:55;8.90;99.90
46336;DHT22;31365;48.858;8.530;2024-03-02T08:15:24;9.10;99.90
46336;DHT22;31365;48.858;8.530;2024-03-02T08:17:54;9.30;99.90
46336;DHT22;31365;48.858;8.530;2024-03-02T08:20:23;9.50;99.90
46336;DHT22;31365;48.858;8.530;2024-03-02T08:22:51;9.70;99.90
46336;DHT22;31365;48.858;8.530;2024-03-02T08:25:22;9.90;99.90
46336;DHT22;31365;48.858;8.530;2024-03-02T08:27:50;10.00;99.90
46336;DHT22;31365;48.858;8.530;2024-03-02T08:30:18;10.10;99.90
46336;DHT22;31365;48.858;8.530;2024-03-02T08:32:47;10.20;99.90
46336;DHT22;31365;48.858;8.530;2024-03-02T08:35:17;10.40;99.90
46336;DHT22;31365;48.858;8.530;2024-03-02T08:37:45;10.40;99.90
46336;DHT22;31365;48.858;8.530;2024-03-02T08:40:14;10.50;99.90
46336;DHT22;31365;48.858;8.530;2024-03-02T08:42:45;10.60;99.90
46336;DHT22;31365;48.858;8.530;2024-03-02T08:45:15;10.60;99.90
46336;DHT22;31365;48.858;8.530;2024-03-02T08:47:44;10.70;99.90
46336;DHT22;31365;48.858;8.530;2024-03-02T08:50:12;10.70;99.90
46336;DHT22;31365;48.858;8.530;2024-03-02T08:52:42;10.80;99.90
46336;DHT22;31365;48.858;8.530;2024-03-02T08:55:11;10.80;99.90
46336;DHT22;31365;48.858;8.530;2024-03-02T08:57:40;10.90;99.90
46336;DHT22;31365;48.858;8.530;2024-03-02T09:00:12;11.00;99.90
46336;DHT22;31365;48.858;8.530;2024-03-02T09:02:41;11.00;99.90
46336;DHT22;31365;48.858;8.530;2024-03-02T09:05:10;11.00;99.90
46336;DHT22;31365;48.858;8.530;2024-03-02T09:07:39;11.10;99.90
46336;DHT22;31365;48.858;8.530;2024-03-02T09:10:09;11.20;99.90
46336;DHT22;31365;48.858;8.530;2024-03-02T09:12:39;11.30;99.90
46336;DHT22;31365;48.858;8.530;2024-03-02T09:15:08;11.30;99.90
46336;DHT22;31365;48.858;8.530;2024-03-02T09:17:37;11.40;99.90
46336;DHT22;31365;48.858;8.530;2024-03-02T09:20:06;11.40;99.90
46336;DHT22;31365;48.858;8.530;2024-03-02T09:22:35;11.50;99.90
46336;DHT22;31365;48.858;8.530;2024-03-02T09:25:04;11.50;99.90
46336;DHT22;31365;48.858;8.530;2024-03-02T09:27:37;11.60;99.90
46336;DHT22;31365;48.858;8.530;2024-03-02T09:30:08;11.70;99.90
46336;DHT22;31365;48.858;8.530;2024-03-02T09:32:37;11.70;99.90
46336;DHT22;31365;48.858;8.530;2024-03-02T09:35:06;11.80;99.90
46336;DHT22;31365;48.858;8.530;2024-03-02T09:37:36;11.80;99.90
46336;DHT22;31365;48.858;8.530;2024-03-02T09:40:05;11.90;99.90
46336;DHT22;31365;48.858;8.530;2024-03-02T09:42:34;11.90;99.90
46336;DHT22;31365;48.858;8.530;2024-03-02T09:45:06;12.00;99.90
46336;DHT22;31365;48.858;8.530;2024-03-02T09:47:34;12.10;99.90
46336;DHT22;31365;48.858;8.530;2024-03-02T09:50:03;12.20;99.90
46336;DHT22;31365;48.858;8.530;2024-03-02T09:52:32;12.20;99.90
46336;DHT22;31365;48.858;8.530;2024-03-02T09:55:01;12.30;99.90
46336;DHT22;31365;48.858;8.530;2024-03-02T09:57:32;12.40;99.90
46336;DHT22;31365;48.858;8.530;2024-03-02T10:00:03;12.50;99.90
46336;DHT22;31365;48.858;8.530;2024-03-02T10:02:32;12.60;99.90
46336;DHT22;31365;48.858;8.530;2024-03-02T10:05:00;12.70;99.90
46336;DHT22;31365;48.858;8.530;2024-03-02T10:07:30;12.80;99.90
46336;DHT22;31365;48.858;8.530;2024-03-02T10:10:12;12.90;99.90
46336;DHT22;31365;48.858;8.530;2024-03-02T10:12:41;13.10;99.90
46336;DHT22;31365;48.858;8.530;2024-03-02T10:15:12;13.20;99.90
46336;DHT22;31365;48.858;8.530;2024-03-02T10:17:40;13.40;99.90
46336;DHT22;31365;48.858;8.530;2024-03-02T10:20:24;13.40;99.90
46336;DHT22;31365;48.858;8.530;2024-03-02T10:22:53;13.60;99.90
46336;DHT22;31365;48.858;8.530;2024-03-02T10:25:32;13.80;99.90
46336;DHT22;31365;48.858;8.530;2024-03-02T10:28:05;14.00;99.90
46336;DHT22;31365;48.858;8.530;2024-03-02T10:30:35;14.00;99.90
46336;DHT22;31365;48.858;8.530;2024-03-02T10:33:05;14.00;99.90
46336;DHT22;31365;48.858;8.530;2024-03-02T10:35:34;13.90;99.90
46336;DHT22;31365;48.858;8.530;2024-03-02T10:38:05;14.10;99.90
46336;DHT22;31365;48.858;8.530;2024-03-02T10:40:34;14.10;99.90
46336;DHT22;31365;48.858;8.530;2024-03-02T10:43:03;14.40;99.90
46336;DHT22;31365;48.858;8.530;2024-03-02T10:45:34;14.90;99.90
46336;DHT22;31365;48.858;8.530;2024-03-02T10:48:04;15.40;99.90
46336;DHT22;31365;48.858;8.530;2024-03-02T10:50:33;15.90;99.90
46336;DHT22;31365;48.858;8.530;2024-03-02T10:53:02;16.10;99.90
46336;DHT22;31365;48.858;8.530;2024-03-02T10:55:33;16.00;99.90
46336;DHT22;31365;48.858;8.530;2024-03-02T10:58:04;16.10;99.90
46336;DHT22;31365;48.858;8.530;2024-03-02T11:00:38;16.00;99.90
46336;DHT22;31365;48.858;8.530;2024-03-02T11:03:07;16.00;99.90
46336;DHT22;31365;48.858;8.530;2024-03-02T11:05:40;16.20;99.90
46336;DHT22;31365;48.858;8.530;2024-03-02T11:08:13;16.20;99.90
46336;DHT22;31365;48.858;8.530;2024-03-02T11:10:50;16.20;99.90
46336;DHT22;31365;48.858;8.530;2024-03-02T11:13:22;16.20;99.90
46336;DHT22;31365;48.858;8.530;2024-03-02T11:16:05;16.30;99.90
46336;DHT22;31365;48.858;8.530;2024-03-02T11:18:37;16.30;99.90
46336;DHT22;31365;48.858;8.530;2024-03-02T11:21:09;16.60;99.90
46336;DHT22;31365;48.858;8.530;2024-03-02T11:23:38;16.90;99.90
46336;DHT22;31365;48.858;8.530;2024-03-02T11:26:19;17.00;99.90
46336;DHT22;31365;48.858;8.530;2024-03-02T11:28:49;17.20;99.90
46336;DHT22;31365;48.858;8.530;2024-03-02T11:31:19;17.60;99.90
46336;DHT22;31365;48.858;8.530;2024-03-02T11:33:47;18.20;99.90
46336;DHT22;31365;48.858;8.530;2024-03-02T11:36:16;18.50;99.90
46336;DHT22;31365;48.858;8.530;2024-03-02T11:38:45;18.60;99.90
46336;DHT22;31365;48.858;8.530;2024-03-02T11:41:15;18.50;99.90
46336;DHT22;31365;48.858;8.530;2024-03-02T11:43:45;18.50;99.90
46336;DHT22;31365;48.858;8.530;2024-03-02T11:46:15;18.70;99.90
46336;DHT22;31365;48.858;8.530;2024-03-02T11:48:46;18.80;99.90
46336;DHT22;31365;48.858;8.530;2024-03-02T11:51:15;18.50;99.90
46336;DHT22;31365;48.858;8.530;2024-03-02T11:53:45;19.10;99.90
46336;DHT22;31365;48.858;8.530;2024-03-02T11:56:15;19.60;99.90
46336;DHT22;31365;48.858;8.530;2024-03-02T11:58:46;20.30;99.90
46336;DHT22;31365;48.858;8.530;2024-03-02T12:01:15;20.40;99.90
46336;DHT22;31365;48.858;8.530;2024-03-02T12:03:46;20.30;99.90
46336;DHT22;31365;48.858;8.530;2024-03-02T12:06:15;20.50;99.60
46336;DHT22;31365;48.858;8.530;2024-03-02T12:08:46;20.60;99.70
46336;DHT22;31365;48.858;8.530;2024-03-02T12:11:20;20.40;99.10
46336;DHT22;31365;48.858;8.530;2024-03-02T12:13:52;20.90;99.00
46336;DHT22;31365;48.858;8.530;2024-03-02T12:16:24;21.50;97.80
46336;DHT22;31365;48.858;8.530;2024-03-02T12:18:56;21.20;97.30
46336;DHT22;31365;48.858;8.530;2024-03-02T12:21:25;20.60;97.70
46336;DHT22;31365;48.858;8.530;2024-03-02T12:23:54;20.20;97.90
46336;DHT22;31365;48.858;8.530;2024-03-02T12:26:24;19.60;98.20
46336;DHT22;31365;48.858;8.530;2024-03-02T12:28:52;18.90;98.60
46336;DHT22;31365;48.858;8.530;2024-03-02T12:31:21;18.30;99.80
46336;DHT22;31365;48.858;8.530;2024-03-02T12:33:50;18.00;99.90
46336;DHT22;31365;48.858;8.530;2024-03-02T12:36:20;17.70;99.90
46336;DHT22;31365;48.858;8.530;2024-03-02T12:38:52;17.40;99.90
46336;DHT22;31365;48.858;8.530;2024-03-02T12:41:22;17.40;99.90
46336;DHT22;31365;48.858;8.530;2024-03-02T12:43:51;17.70;99.90
46336;DHT22;31365;48.858;8.530;2024-03-02T12:46:21;17.80;99.90
46336;DHT22;31365;48.858;8.530;2024-03-02T12:48:51;19.10;99.90
46336;DHT22;31365;48.858;8.530;2024-03-02T12:51:20;20.30;98.40
46336;DHT22;31365;48.858;8.530;2024-03-02T12:53:53;21.80;97.50
46336;DHT22;31365;48.858;8.530;2024-03-02T12:56:22;23.20;96.50
46336;DHT22;31365;48.858;8.530;2024-03-02T12:58:53;23.80;94.80
46336;DHT22;31365;48.858;8.530;2024-03-02T13:01:22;23.50;93.30
46336;DHT22;31365;48.858;8.530;2024-03-02T13:03:52;22.80;93.70
46336;DHT22;31365;48.858;8.530;2024-03-02T13:06:24;22.30;94.40
46336;DHT22;31365;48.858;8.530;2024-03-02T13:08:55;21.60;94.80
46336;DHT22;31365;48.858;8.530;2024-03-02T13:11:24;22.30;94.70
46336;DHT22;31365;48.858;8.530;2024-03-02T13:13:53;23.50;93.60
46336;DHT22;31365;48.858;8.530;2024-03-02T13:16:23;24.10;92.20
46336;DHT22;31365;48.858;8.530;2024-03-02T13:18:58;23.60;92.00
46336;DHT22;31365;48.858;8.530;2024-03-02T13:21:31;22.80;92.00
46336;DHT22;31365;48.858;8.530;2024-03-02T13:24:00;22.80;93.00
46336;DHT22;31365;48.858;8.530;2024-03-02T13:26:28;23.90;92.00
46336;DHT22;31365;48.858;8.530;2024-03-02T13:28:57;25.40;90.20
46336;DHT22;31365;48.858;8.530;2024-03-02T13:31:26;25.90;89.80
46336;DHT22;31365;48.858;8.530;2024-03-02T13:33:54;26.30;88.00
46336;DHT22;31365;48.858;8.530;2024-03-02T13:36:23;26.10;86.70
46336;DHT22;31365;48.858;8.530;2024-03-02T13:38:53;26.10;86.90
46336;DHT22;31365;48.858;8.530;2024-03-02T13:41:22;25.00;87.60
46336;DHT22;31365;48.858;8.530;2024-03-02T13:43:50;23.70;88.10
46336;DHT22;31365;48.858;8.530;2024-03-02T13:46:20;22.50;90.00
46336;DHT22;31365;48.858;8.530;2024-03-02T13:48:49;21.60;91.10
46336;DHT22;31365;48.858;8.530;2024-03-02T13:51:18;21.20;91.60
46336;DHT22;31365;48.858;8.530;2024-03-02T13:53:46;21.00;91.50
46336;DHT22;31365;48.858;8.530;2024-03-02T13:56:16;20.50;91.90
46336;DHT22;31365;48.858;8.530;2024-03-02T13:58:45;20.40;92.20
46336;DHT22;31365;48.858;8.530;2024-03-02T14:01:14;20.30;92.30
46336;DHT22;31365;48.858;8.530;2024-03-02T14:03:42;20.20;92.40
46336;DHT22;31365;48.858;8.530;2024-03-02T14:06:12;20.10;92.70
46336;DHT22;31365;48.858;8.530;2024-03-02T14:08:41;20.10;93.20
46336;DHT22;31365;48.858;8.530;2024-03-02T14:11:11;20.00;93.20
46336;DHT22;31365;48.858;8.530;2024-03-02T14:13:43;20.00;93.40
46336;DHT22;31365;48.858;8.530;2024-03-02T14:16:16;20.10;93.20
46336;DHT22;31365;48.858;8.530;2024-03-02T14:18:45;20.20;93.00
46336;DHT22;31365;48.858;8.530;2024-03-02T14:21:13;20.10;93.20
46336;DHT22;31365;48.858;8.530;2024-03-02T14:23:42;20.40;93.00
46336;DHT22;31365;48.858;8.530;2024-03-02T14:26:11;20.50;92.60
46336;DHT22;31365;48.858;8.530;2024-03-02T14:28:40;20.50;93.20
46336;DHT22;31365;48.858;8.530;2024-03-02T14:31:18;20.40;92.90
46336;DHT22;31365;48.858;8.530;2024-03-02T14:33:47;20.10;93.20
46336;DHT22;31365;48.858;8.530;2024-03-02T14:36:15;19.90;93.40
46336;DHT22;31365;48.858;8.530;2024-03-02T14:38:44;19.80;93.60
46336;DHT22;31365;48.858;8.530;2024-03-02T14:41:13;19.60;93.80
46336;DHT22;31365;48.858;8.530;2024-03-02T14:43:42;19.30;94.40
46336;DHT22;31365;48.858;8.530;2024-03-02T14:46:11;19.00;94.70
46336;DHT22;31365;48.858;8.530;2024-03-02T14:48:44;18.70;95.20
46336;DHT22;31365;48.858;8.530;2024-03-02T14:51:14;18.50;95.40
46336;DHT22;31365;48.858;8.530;2024-03-02T14:53:43;18.30;95.60
46336;DHT22;31365;48.858;8.530;2024-03-02T14:56:11;18.10;95.90
46336;DHT22;31365;48.858;8.530;2024-03-02T14:58:41;17.90;96.10
46336;DHT22;31365;48.858;8.530;2024-03-02T15:01:12;17.70;96.20
46336;DHT22;31365;48.858;8.530;2024-03-02T15:03:42;17.50;96.50
46336;DHT22;31365;48.858;8.530;2024-03-02T15:06:11;17.30;96.80
46336;DHT22;31365;48.858;8.530;2024-03-02T15:08:40;17.20;97.10
46336;DHT22;31365;48.858;8.530;2024-03-02T15:11:09;17.10;97.20
46336;DHT22;31365;48.858;8.530;2024-03-02T15:13:38;16.90;97.50
46336;DHT22;31365;48.858;8.530;2024-03-02T15:16:06;16.70;97.90
46336;DHT22;31365;48.858;8.530;2024-03-02T15:18:35;16.50;98.20
46336;DHT22;31365;48.858;8.530;2024-03-02T15:21:06;16.40;98.60
46336;DHT22;31365;48.858;8.530;2024-03-02T15:23:34;16.30;98.80
46336;DHT22;31365;48.858;8.530;2024-03-02T15:26:03;16.20;98.90
46336;DHT22;31365;48.858;8.530;2024-03-02T15:28:32;16.00;99.10
46336;DHT22;31365;48.858;8.530;2024-03-02T15:31:01;15.90;99.40
46336;DHT22;31365;48.858;8.530;2024-03-02T15:33:30;15.80;99.80
46336;DHT22;31365;48.858;8.530;2024-03-02T15:35:59;15.60;99.70
46336;DHT22;31365;48.858;8.530;2024-03-02T15:38:29;15.60;99.90
46336;DHT22;31365;48.858;8.530;2024-03-02T15:41:03;15.50;99.90
46336;DHT22;31365;48.858;8.530;2024-03-02T15:43:32;15.40;99.90
46336;DHT22;31365;48.858;8.530;2024-03-02T15:46:03;15.30;99.90
46336;DHT22;31365;48.858;8.530;2024-03-02T15:48:32;15.20;99.90
46336;DHT22;31365;48.858;8.530;2024-03-02T15:51:01;15.20;99.90
46336;DHT22;31365;48.858;8.530;2024-03-02T15:53:35;15.00;99.90
46336;DHT22;31365;48.858;8.530;2024-03-02T15:56:04;14.90;99.90